sensor_id;sensor_type;location;lat;lon;timestamp;pressure;altitude;pressure_sealevel;temperature;humidity
54361;BME280;40258;53.936;27.540;2022-07-19T00:00:17;99492.19;;;15.38;100.00
54361;BME280;40258;53.936;27.540;2022-07-19T00:02:46;99492.19;;;15.38;100.00
54361;BME280;40258;53.936;27.540;2022-07-19T00:05:17;99491.50;;;15.41;100.00
54361;BME280;40258;53.936;27.540;2022-07-19T00:07:47;99504.25;;;15.50;100.00
54361;BME280;40258;53.936;27.540;2022-07-19T00:10:17;99498.09;;;15.53;100.00
54361;BME280;40258;53.936;27.540;2022-07-19T00:12:47;99505.16;;;15.54;100.00
54361;BME280;40258;53.936;27.540;2022-07-19T00:15:16;99490.22;;;15.51;100.00
54361;BME280;40258;53.936;27.540;2022-07-19T00:17:47;99498.31;;;15.48;100.00
54361;BME280;40258;53.936;27.540;2022-07-19T00:20:20;99492.72;;;15.44;100.00
54361;BME280;40258;53.936;27.540;2022-07-19T00:22:49;99484.44;;;15.40;100.00
54361;BME280;40258;53.936;27.540;2022-07-19T00:25:18;99497.66;;;15.38;100.00
54361;BME280;40258;53.936;27.540;2022-07-19T00:27:47;99491.28;;;15.34;100.00
54361;BME280;40258;53.936;27.540;2022-07-19T00:30:15;99495.25;;;15.37;100.00
54361;BME280;40258;53.936;27.540;2022-07-19T00:32:44;99500.94;;;15.44;100.00
54361;BME280;40258;53.936;27.540;2022-07-19T00:35:12;99494.91;;;15.51;100.00
54361;BME280;40258;53.936;27.540;2022-07-19T00:37:42;99502.19;;;15.59;100.00
54361;BME280;40258;53.936;27.540;2022-07-19T00:40:12;99505.34;;;15.61;100.00
54361;BME280;40258;53.936;27.540;2022-07-19T00:42:40;99502.97;;;15.59;100.00
54361;BME280;40258;53.936;27.540;2022-07-19T00:45:10;99496.03;;;15.62;100.00
54361;BME280;40258;53.936;27.540;2022-07-19T00:47:38;99506.16;;;15.61;100.00
54361;BME280;40258;53.936;27.540;2022-07-19T00:50:08;99498.19;;;15.56;100.00
54361;BME280;40258;53.936;27.540;2022-07-19T00:52:40;99504.34;;;15.53;100.00
54361;BME280;40258;53.936;27.540;2022-07-19T00:55:11;99497.97;;;15.49;100.00
54361;BME280;40258;53.936;27.540;2022-07-19T00:57:40;99508.09;;;15.49;100.00
54361;BME280;40258;53.936;27.540;2022-07-19T01:00:10;99506.06;;;15.45;100.00
54361;BME280;40258;53.936;27.540;2022-07-19T01:02:39;99508.34;;;15.43;100.00
54361;BME280;40258;53.936;27.540;2022-07-19T01:05:09;99506.31;;;15.40;100.00
54361;BME280;40258;53.936;27.540;2022-07-19T01:07:41;99512.47;;;15.37;100.00
54361;BME280;40258;53.936;27.540;2022-07-19T01:10:13;99517.94;;;15.37;100.00
54361;BME280;40258;53.936;27.540;2022-07-19T01:12:42;99514.75;;;15.35;100.00
54361;BME280;40258;53.936;27.540;2022-07-19T01:15:17;99515.09;;;15.34;100.00
54361;BME280;40258;53.936;27.540;2022-07-19T01:17:46;99517.00;;;15.33;100.00
54361;BME280;40258;53.936;27.540;2022-07-19T01:20:16;99516.31;;;15.36;100.00
54361;BME280;40258;53.936;27.540;2022-07-19T01:22:47;99519.63;;;15.30;100.00
54361;BME280;40258;53.936;27.540;2022-07-19T01:25:16;99508.16;;;15.24;100.00
54361;BME280;40258;53.936;27.540;2022-07-19T01:27:48;99509.72;;;15.25;100.00
54361;BME280;40258;53.936;27.540;2022-07-19T01:30:21;99508.59;;;15.26;100.00
54361;BME280;40258;53.936;27.540;2022-07-19T01:32:50;99509.03;;;15.28;100.00
54361;BME280;40258;53.936;27.540;2022-07-19T01:35:19;99509.63;;;15.34;100.00
54361;BME280;40258;53.936;27.540;2022-07-19T01:37:50;99505.38;;;15.36;100.00
54361;BME280;40258;53.936;27.540;2022-07-19T01:40:20;99505.38;;;15.36;100.00
54361;BME280;40258;53.936;27.540;2022-07-19T01:42:49;99507.34;;;15.36;100.00
54361;BME280;40258;53.936;27.540;2022-07-19T01:45:18;99501.63;;;15.41;100.00
54361;BME280;40258;53.936;27.540;2022-07-19T01:47:48;99508.78;;;15.45;100.00
54361;BME280;40258;53.936;27.540;2022-07-19T01:50:18;99511.78;;;15.40;100.00
54361;BME280;40258;53.936;27.540;2022-07-19T01:52:46;99507.00;;;15.37;100.00
54361;BME280;40258;53.936;27.540;2022-07-19T01:55:18;99511.66;;;15.37;100.00
54361;BME280;40258;53.936;27.540;2022-07-19T01:57:47;99508.59;;;15.38;100.00
54361;BME280;40258;53.936;27.540;2022-07-19T02:00:16;99514.06;;;15.38;100.00
54361;BME280;40258;53.936;27.540;2022-07-19T02:02:45;99513.38;;;15.41;100.00
54361;BME280;40258;53.936;27.540;2022-07-19T02:05:14;99518.59;;;15.34;100.00
54361;BME280;40258;53.936;27.540;2022-07-19T02:07:42;99514.63;;;15.32;100.00
54361;BME280;40258;53.936;27.540;2022-07-19T02:10:11;99518.50;;;15.31;100.00
54361;BME280;40258;53.936;27.540;2022-07-19T02:12:41;99515.44;;;15.32;100.00
54361;BME280;40258;53.936;27.540;2022-07-19T02:15:10;99521.59;;;15.29;100.00
54361;BME280;40258;53.936;27.540;2022-07-19T02:17:38;99516.91;;;15.30;100.00
54361;BME280;40258;53.936;27.540;2022-07-19T02:20:08;99523.97;;;15.31;100.00
54361;BME280;40258;53.936;27.540;2022-07-19T02:22:37;99517.00;;;15.33;100.00
54361;BME280;40258;53.936;27.540;2022-07-19T02:25:07;99509.72;;;15.37;100.00
54361;BME280;40258;53.936;27.540;2022-07-19T02:27:35;99508.59;;;15.38;100.00
54361;BME280;40258;53.936;27.540;2022-07-19T02:30:07;99509.97;;;15.44;100.00
54361;BME280;40258;53.936;27.540;2022-07-19T02:32:36;99503.47;;;15.49;100.00
54361;BME280;40258;53.936;27.540;2022-07-19T02:35:07;99514.72;;;15.60;100.00
54361;BME280;40258;53.936;27.540;2022-07-19T02:37:38;99512.66;;;15.69;100.00
54361;BME280;40258;53.936;27.540;2022-07-19T02:40:08;99511.97;;;15.72;100.00
54361;BME280;40258;53.936;27.540;2022-07-19T02:42:37;99515.50;;;15.73;100.00
54361;BME280;40258;53.936;27.540;2022-07-19T02:45:08;99515.03;;;15.71;100.00
54361;BME280;40258;53.936;27.540;2022-07-19T02:47:38;99513.53;;;15.73;100.00
54361;BME280;40258;53.936;27.540;2022-07-19T02:50:07;99513.78;;;15.80;100.00
54361;BME280;40258;53.936;27.540;2022-07-19T02:52:36;99517.22;;;15.77;100.00
54361;BME280;40258;53.936;27.540;2022-07-19T02:55:06;99515.59;;;15.76;100.00
54361;BME280;40258;53.936;27.540;2022-07-19T02:57:35;99518.31;;;15.76;100.00
54361;BME280;40258;53.936;27.540;2022-07-19T03:00:07;99519.81;;;15.74;100.00
54361;BME280;40258;53.936;27.540;2022-07-19T03:02:36;99515.13;;;15.74;100.00
54361;BME280;40258;53.936;27.540;2022-07-19T03:05:06;99523.94;;;15.80;100.00
54361;BME280;40258;53.936;27.540;2022-07-19T03:07:35;99518.31;;;15.89;100.00
54361;BME280;40258;53.936;27.540;2022-07-19T03:10:05;99523.53;;;15.94;100.00
54361;BME280;40258;53.936;27.540;2022-07-19T03:12:34;99521.72;;;15.98;100.00
54361;BME280;40258;53.936;27.540;2022-07-19T03:15:04;99516.09;;;16.07;100.00
54361;BME280;40258;53.936;27.540;2022-07-19T03:17:34;99525.16;;;15.70;100.00
54361;BME280;40258;53.936;27.540;2022-07-19T03:20:04;99516.56;;;15.43;100.00
54361;BME280;40258;53.936;27.540;2022-07-19T03:22:32;99519.19;;;15.52;100.00
54361;BME280;40258;53.936;27.540;2022-07-19T03:25:01;99527.25;;;15.61;100.00
54361;BME280;40258;53.936;27.540;2022-07-19T03:27:30;99524.97;;;15.63;100.00
54361;BME280;40258;53.936;27.540;2022-07-19T03:29:58;99520.88;;;15.57;100.00
54361;BME280;40258;53.936;27.540;2022-07-19T03:32:27;99521.09;;;15.39;100.00
54361;BME280;40258;53.936;27.540;2022-07-19T03:34:57;99529.53;;;15.22;100.00
54361;BME280;40258;53.936;27.540;2022-07-19T03:37:25;99523.50;;;15.41;100.00
54361;BME280;40258;53.936;27.540;2022-07-19T03:39:54;99522.25;;;15.51;100.00
54361;BME280;40258;53.936;27.540;2022-07-19T03:42:23;99522.13;;;15.47;100.00
54361;BME280;40258;53.936;27.540;2022-07-19T03:44:52;99524.75;;;15.56;100.00
54361;BME280;40258;53.936;27.540;2022-07-19T03:47:21;99532.72;;;15.61;100.00
54361;BME280;40258;53.936;27.540;2022-07-19T03:49:50;99530.91;;;15.77;100.00
54361;BME280;40258;53.936;27.540;2022-07-19T03:52:20;99535.19;;;15.91;100.00
54361;BME280;40258;53.936;27.540;2022-07-19T03:54:49;99537.78;;;15.99;100.00
54361;BME280;40258;53.936;27.540;2022-07-19T03:57:17;99532.44;;;15.91;100.00
54361;BME280;40258;53.936;27.540;2022-07-19T03:59:45;99538.56;;;16.00;100.00
54361;BME280;40258;53.936;27.540;2022-07-19T04:02:14;99552.44;;;16.20;100.00
54361;BME280;40258;53.936;27.540;2022-07-19T04:04:43;99536.31;;;16.30;100.00
54361;BME280;40258;53.936;27.540;2022-07-19T04:07:11;99536.50;;;16.38;100.00
54361;BME280;40258;53.936;27.540;2022-07-19T04:09:41;99534.31;;;16.43;100.00
54361;BME280;40258;53.936;27.540;2022-07-19T04:12:10;99538.59;;;16.57;100.00
54361;BME280;40258;53.936;27.540;2022-07-19T04:14:39;99531.88;;;16.70;100.00
54361;BME280;40258;53.936;27.540;2022-07-19T04:17:07;99531.38;;;16.80;100.00
54361;BME280;40258;53.936;27.540;2022-07-19T04:19:35;99536.59;;;17.01;100.00
54361;BME280;40258;53.936;27.540;2022-07-19T04:22:04;99533.69;;;17.10;99.96
54361;BME280;40258;53.936;27.540;2022-07-19T04:24:33;99535.09;;;17.36;98.68
54361;BME280;40258;53.936;27.540;2022-07-19T04:27:03;99530.09;;;17.57;96.21
54361;BME280;40258;53.936;27.540;2022-07-19T04:29:32;99533.91;;;17.53;95.35
54361;BME280;40258;53.936;27.540;2022-07-19T04:32:00;99538.72;;;17.24;95.88
54361;BME280;40258;53.936;27.540;2022-07-19T04:34:29;99535.81;;;17.01;97.96
54361;BME280;40258;53.936;27.540;2022-07-19T04:36:57;99537.16;;;17.07;98.77
54361;BME280;40258;53.936;27.540;2022-07-19T04:39:26;99539.88;;;17.07;97.49
54361;BME280;40258;53.936;27.540;2022-07-19T04:41:55;99533.88;;;17.17;96.91
54361;BME280;40258;53.936;27.540;2022-07-19T04:44:25;99551.38;;;17.29;95.67
54361;BME280;40258;53.936;27.540;2022-07-19T04:46:53;99548.47;;;17.05;96.67
54361;BME280;40258;53.936;27.540;2022-07-19T04:49:22;99546.16;;;16.92;95.70
54361;BME280;40258;53.936;27.540;2022-07-19T04:51:50;99549.53;;;17.01;96.41
54361;BME280;40258;53.936;27.540;2022-07-19T04:54:19;99542.41;;;16.68;97.32
54361;BME280;40258;53.936;27.540;2022-07-19T04:56:47;99540.28;;;16.61;97.64
54361;BME280;40258;53.936;27.540;2022-07-19T04:59:17;99535.38;;;16.99;97.01
54361;BME280;40258;53.936;27.540;2022-07-19T05:01:46;99545.50;;;17.46;94.89
54361;BME280;40258;53.936;27.540;2022-07-19T05:04:15;99537.06;;;17.19;94.03
54361;BME280;40258;53.936;27.540;2022-07-19T05:06:43;99544.28;;;17.28;92.24
54361;BME280;40258;53.936;27.540;2022-07-19T05:09:12;99548.91;;;16.92;93.74
54361;BME280;40258;53.936;27.540;2022-07-19T05:11:40;99553.59;;;17.07;93.99
54361;BME280;40258;53.936;27.540;2022-07-19T05:14:09;99556.69;;;17.05;92.24
54361;BME280;40258;53.936;27.540;2022-07-19T05:16:37;99561.56;;;16.68;94.99
54361;BME280;40258;53.936;27.540;2022-07-19T05:19:08;99559.03;;;16.75;96.49
54361;BME280;40258;53.936;27.540;2022-07-19T05:21:36;99565.88;;;17.13;94.36
54361;BME280;40258;53.936;27.540;2022-07-19T05:24:05;99560.22;;;17.38;91.47
54361;BME280;40258;53.936;27.540;2022-07-19T05:26:34;99565.84;;;17.45;91.26
54361;BME280;40258;53.936;27.540;2022-07-19T05:29:03;99573.38;;;17.64;89.76
54361;BME280;40258;53.936;27.540;2022-07-19T05:31:31;99574.88;;;17.61;87.59
54361;BME280;40258;53.936;27.540;2022-07-19T05:34:00;99567.03;;;17.95;86.63
54361;BME280;40258;53.936;27.540;2022-07-19T05:36:30;99576.28;;;18.65;82.01
54361;BME280;40258;53.936;27.540;2022-07-19T05:38:59;99579.44;;;18.67;80.69
54361;BME280;40258;53.936;27.540;2022-07-19T05:41:28;99576.31;;;18.26;82.67
54361;BME280;40258;53.936;27.540;2022-07-19T05:43:56;99582.75;;;18.34;83.37
54361;BME280;40258;53.936;27.540;2022-07-19T05:46:25;99582.03;;;18.60;82.08
54361;BME280;40258;53.936;27.540;2022-07-19T05:48:53;99583.03;;;18.91;80.84
54361;BME280;40258;53.936;27.540;2022-07-19T05:51:22;99575.00;;;19.52;78.55
54361;BME280;40258;53.936;27.540;2022-07-19T05:53:51;99580.59;;;18.66;80.62
54361;BME280;40258;53.936;27.540;2022-07-19T05:56:20;99575.41;;;18.22;83.59
54361;BME280;40258;53.936;27.540;2022-07-19T05:58:48;99571.06;;;18.02;86.45
54361;BME280;40258;53.936;27.540;2022-07-19T06:01:17;99579.81;;;18.46;83.25
54361;BME280;40258;53.936;27.540;2022-07-19T06:03:47;99580.72;;;18.74;82.41
54361;BME280;40258;53.936;27.540;2022-07-19T06:06:15;99584.00;;;19.02;80.44
54361;BME280;40258;53.936;27.540;2022-07-19T06:08:44;99584.28;;;19.17;79.96
54361;BME280;40258;53.936;27.540;2022-07-19T06:11:16;99578.88;;;19.24;79.47
54361;BME280;40258;53.936;27.540;2022-07-19T06:13:46;99588.66;;;19.45;76.09
54361;BME280;40258;53.936;27.540;2022-07-19T06:16:14;99588.97;;;18.74;78.81
54361;BME280;40258;53.936;27.540;2022-07-19T06:18:43;99587.06;;;18.97;77.62
54361;BME280;40258;53.936;27.540;2022-07-19T06:21:18;99583.81;;;19.38;76.05
54361;BME280;40258;53.936;27.540;2022-07-19T06:23:47;99592.53;;;19.93;73.38
54361;BME280;40258;53.936;27.540;2022-07-19T06:26:18;99586.81;;;20.06;73.04
54361;BME280;40258;53.936;27.540;2022-07-19T06:28:46;99580.59;;;20.46;71.41
54361;BME280;40258;53.936;27.540;2022-07-19T06:31:15;99586.25;;;20.61;71.26
54361;BME280;40258;53.936;27.540;2022-07-19T06:33:47;99583.56;;;20.31;72.08
54361;BME280;40258;53.936;27.540;2022-07-19T06:36:17;99579.88;;;20.53;71.22
54361;BME280;40258;53.936;27.540;2022-07-19T06:38:46;99589.91;;;20.65;71.39
54361;BME280;40258;53.936;27.540;2022-07-19T06:41:17;99596.66;;;20.71;70.05
54361;BME280;40258;53.936;27.540;2022-07-19T06:43:46;99606.88;;;20.71;68.28
54361;BME280;40258;53.936;27.540;2022-07-19T06:46:14;99595.28;;;20.92;66.56
54361;BME280;40258;53.936;27.540;2022-07-19T06:48:43;99603.31;;;21.08;65.89
54361;BME280;40258;53.936;27.540;2022-07-19T06:51:12;99596.50;;;19.96;65.88
54361;BME280;40258;53.936;27.540;2022-07-19T06:53:41;99592.44;;;19.36;68.08
54361;BME280;40258;53.936;27.540;2022-07-19T06:56:09;99589.84;;;19.74;68.76
54361;BME280;40258;53.936;27.540;2022-07-19T06:58:40;99602.81;;;20.61;65.14
54361;BME280;40258;53.936;27.540;2022-07-19T07:01:08;99602.31;;;20.86;67.33
54361;BME280;40258;53.936;27.540;2022-07-19T07:03:37;99604.50;;;20.35;69.39
54361;BME280;40258;53.936;27.540;2022-07-19T07:06:06;99600.78;;;20.24;69.17
54361;BME280;40258;53.936;27.540;2022-07-19T07:08:35;99591.13;;;20.37;68.23
54361;BME280;40258;53.936;27.540;2022-07-19T07:11:04;99586.03;;;20.39;69.62
54361;BME280;40258;53.936;27.540;2022-07-19T07:13:32;99599.53;;;20.18;70.81
54361;BME280;40258;53.936;27.540;2022-07-19T07:16:03;99587.84;;;20.28;69.76
54361;BME280;40258;53.936;27.540;2022-07-19T07:18:32;99596.97;;;20.32;68.70
54361;BME280;40258;53.936;27.540;2022-07-19T07:21:01;99592.53;;;20.58;69.48
54361;BME280;40258;53.936;27.540;2022-07-19T07:23:29;99590.91;;;20.87;67.14
54361;BME280;40258;53.936;27.540;2022-07-19T07:25:58;99592.28;;;21.08;67.81
54361;BME280;40258;53.936;27.540;2022-07-19T07:28:27;99596.16;;;21.48;64.53
54361;BME280;40258;53.936;27.540;2022-07-19T07:30:56;99607.00;;;21.23;63.45
54361;BME280;40258;53.936;27.540;2022-07-19T07:33:26;99598.31;;;20.79;65.18
54361;BME280;40258;53.936;27.540;2022-07-19T07:35:55;99600.31;;;20.48;66.38
54361;BME280;40258;53.936;27.540;2022-07-19T07:38:24;99594.63;;;20.34;66.44
54361;BME280;40258;53.936;27.540;2022-07-19T07:40:53;99593.38;;;20.62;66.95
54361;BME280;40258;53.936;27.540;2022-07-19T07:43:21;99602.41;;;20.93;64.95
54361;BME280;40258;53.936;27.540;2022-07-19T07:45:50;99601.97;;;20.91;64.38
54361;BME280;40258;53.936;27.540;2022-07-19T07:48:18;99600.34;;;21.31;62.77
54361;BME280;40258;53.936;27.540;2022-07-19T07:50:48;99602.56;;;21.56;60.49
54361;BME280;40258;53.936;27.540;2022-07-19T07:53:16;99603.03;;;21.72;59.15
54361;BME280;40258;53.936;27.540;2022-07-19T07:55:45;99607.94;;;21.97;57.86
54361;BME280;40258;53.936;27.540;2022-07-19T07:58:14;99601.75;;;22.21;58.27
54361;BME280;40258;53.936;27.540;2022-07-19T08:00:42;99603.22;;;22.01;59.17
54361;BME280;40258;53.936;27.540;2022-07-19T08:03:11;99595.16;;;22.44;59.72
54361;BME280;40258;53.936;27.540;2022-07-19T08:05:39;99598.69;;;22.37;57.62
54361;BME280;40258;53.936;27.540;2022-07-19T08:08:10;99600.66;;;21.67;60.88
54361;BME280;40258;53.936;27.540;2022-07-19T08:10:39;99595.38;;;22.06;59.30
54361;BME280;40258;53.936;27.540;2022-07-19T08:13:08;99599.50;;;22.38;59.86
54361;BME280;40258;53.936;27.540;2022-07-19T08:15:37;99606.66;;;22.53;57.63
54361;BME280;40258;53.936;27.540;2022-07-19T08:18:06;99598.03;;;22.87;55.54
54361;BME280;40258;53.936;27.540;2022-07-19T08:20:35;99598.81;;;22.84;56.36
54361;BME280;40258;53.936;27.540;2022-07-19T08:23:03;99599.97;;;22.69;55.29
54361;BME280;40258;53.936;27.540;2022-07-19T08:25:33;99588.47;;;22.52;55.98
54361;BME280;40258;53.936;27.540;2022-07-19T08:28:03;99594.47;;;22.72;56.40
54361;BME280;40258;53.936;27.540;2022-07-19T08:30:32;99587.78;;;23.06;56.13
54361;BME280;40258;53.936;27.540;2022-07-19T08:33:02;99585.41;;;22.97;55.14
54361;BME280;40258;53.936;27.540;2022-07-19T08:35:34;99590.16;;;22.93;55.61
54361;BME280;40258;53.936;27.540;2022-07-19T08:38:03;99582.56;;;22.50;57.18
54361;BME280;40258;53.936;27.540;2022-07-19T08:40:34;99586.25;;;21.43;58.48
54361;BME280;40258;53.936;27.540;2022-07-19T08:43:06;99579.50;;;20.89;61.51
54361;BME280;40258;53.936;27.540;2022-07-19T08:45:36;99581.41;;;20.85;60.59
54361;BME280;40258;53.936;27.540;2022-07-19T08:48:07;99578.47;;;21.49;59.79
54361;BME280;40258;53.936;27.540;2022-07-19T08:50:36;99577.91;;;21.88;57.92
54361;BME280;40258;53.936;27.540;2022-07-19T08:53:05;99581.13;;;22.04;57.77
54361;BME280;40258;53.936;27.540;2022-07-19T08:55:36;99579.69;;;22.29;59.29
54361;BME280;40258;53.936;27.540;2022-07-19T08:58:04;99577.84;;;22.58;55.53
54361;BME280;40258;53.936;27.540;2022-07-19T09:00:34;99580.59;;;22.58;56.58
54361;BME280;40258;53.936;27.540;2022-07-19T09:03:05;99582.19;;;22.73;56.37
54361;BME280;40258;53.936;27.540;2022-07-19T09:05:35;99578.28;;;23.00;55.14
54361;BME280;40258;53.936;27.540;2022-07-19T09:08:09;99579.13;;;23.14;55.73
54361;BME280;40258;53.936;27.540;2022-07-19T09:10:43;99587.03;;;23.20;55.71
54361;BME280;40258;53.936;27.540;2022-07-19T09:13:34;99582.28;;;23.35;54.11
54361;BME280;40258;53.936;27.540;2022-07-19T09:16:03;99573.16;;;23.45;53.61
54361;BME280;40258;53.936;27.540;2022-07-19T09:18:33;99575.94;;;23.09;55.55
54361;BME280;40258;53.936;27.540;2022-07-19T09:21:05;99570.00;;;23.46;54.59
54361;BME280;40258;53.936;27.540;2022-07-19T09:23:34;99568.75;;;23.87;51.89
54361;BME280;40258;53.936;27.540;2022-07-19T09:26:05;99570.75;;;23.72;52.09
54361;BME280;40258;53.936;27.540;2022-07-19T09:28:35;99578.25;;;24.00;51.76
54361;BME280;40258;53.936;27.540;2022-07-19T09:31:05;99563.59;;;23.96;51.05
54361;BME280;40258;53.936;27.540;2022-07-19T09:33:34;99567.88;;;24.19;50.41
54361;BME280;40258;53.936;27.540;2022-07-19T09:36:12;99566.81;;;24.72;48.87
54361;BME280;40258;53.936;27.540;2022-07-19T09:38:41;99561.97;;;24.87;50.82
54361;BME280;40258;53.936;27.540;2022-07-19T09:41:14;99562.38;;;24.86;49.47
54361;BME280;40258;53.936;27.540;2022-07-19T09:43:54;99560.31;;;25.50;47.17
54361;BME280;40258;53.936;27.540;2022-07-19T09:46:32;99566.41;;;25.30;47.08
54361;BME280;40258;53.936;27.540;2022-07-19T09:49:08;99559.38;;;25.15;48.05
54361;BME280;40258;53.936;27.540;2022-07-19T09:51:39;99570.41;;;25.71;46.85
54361;BME280;40258;53.936;27.540;2022-07-19T09:54:11;99564.44;;;26.10;45.20
54361;BME280;40258;53.936;27.540;2022-07-19T09:56:42;99569.81;;;25.87;45.45
54361;BME280;40258;53.936;27.540;2022-07-19T09:59:12;99561.84;;;25.51;46.29
54361;BME280;40258;53.936;27.540;2022-07-19T10:01:41;99555.53;;;24.34;49.30
54361;BME280;40258;53.936;27.540;2022-07-19T10:04:12;99561.47;;;24.33;50.84
54361;BME280;40258;53.936;27.540;2022-07-19T10:06:43;99560.13;;;23.56;52.38
54361;BME280;40258;53.936;27.540;2022-07-19T10:09:14;99560.91;;;22.99;54.26
54361;BME280;40258;53.936;27.540;2022-07-19T10:11:44;99554.56;;;22.80;57.34
54361;BME280;40258;53.936;27.540;2022-07-19T10:14:13;99552.59;;;23.53;53.85
54361;BME280;40258;53.936;27.540;2022-07-19T10:17:02;99556.94;;;23.43;51.85
54361;BME280;40258;53.936;27.540;2022-07-19T10:19:39;99560.81;;;24.03;51.54
54361;BME280;40258;53.936;27.540;2022-07-19T10:22:12;99555.00;;;24.61;50.32
54361;BME280;40258;53.936;27.540;2022-07-19T10:24:48;99550.41;;;24.96;49.94
54361;BME280;40258;53.936;27.540;2022-07-19T10:27:35;99548.16;;;25.33;47.24
54361;BME280;40258;53.936;27.540;2022-07-19T10:30:25;99553.44;;;25.12;47.61
54361;BME280;40258;53.936;27.540;2022-07-19T10:32:55;99557.59;;;25.42;48.34
54361;BME280;40258;53.936;27.540;2022-07-19T10:35:30;99552.56;;;25.68;47.10
54361;BME280;40258;53.936;27.540;2022-07-19T10:38:10;99555.56;;;25.84;45.74
54361;BME280;40258;53.936;27.540;2022-07-19T10:40:41;99551.66;;;26.16;45.62
54361;BME280;40258;53.936;27.540;2022-07-19T10:43:12;99546.53;;;26.11;43.76
54361;BME280;40258;53.936;27.540;2022-07-19T10:45:43;99549.22;;;25.84;44.97
54361;BME280;40258;53.936;27.540;2022-07-19T10:48:36;99543.72;;;25.77;47.63
54361;BME280;40258;53.936;27.540;2022-07-19T10:51:06;99544.50;;;24.20;50.75
54361;BME280;40258;53.936;27.540;2022-07-19T10:56:42;99549.38;;;23.80;52.38
54361;BME280;40258;53.936;27.540;2022-07-19T10:59:13;99545.03;;;23.75;52.38
54361;BME280;40258;53.936;27.540;2022-07-19T11:01:55;99536.38;;;23.55;52.26
54361;BME280;40258;53.936;27.540;2022-07-19T11:04:30;99544.81;;;24.36;50.63
54361;BME280;40258;53.936;27.540;2022-07-19T11:07:18;99540.78;;;24.52;49.88
54361;BME280;40258;53.936;27.540;2022-07-19T11:09:51;99550.03;;;24.94;49.18
54361;BME280;40258;53.936;27.540;2022-07-19T11:12:32;99554.00;;;24.93;49.00
54361;BME280;40258;53.936;27.540;2022-07-19T11:15:07;99550.94;;;24.76;48.74
54361;BME280;40258;53.936;27.540;2022-07-19T11:17:35;99540.50;;;24.95;49.51
54361;BME280;40258;53.936;27.540;2022-07-19T11:20:10;99551.72;;;24.77;50.16
54361;BME280;40258;53.936;27.540;2022-07-19T11:22:45;99548.16;;;25.29;49.11
54361;BME280;40258;53.936;27.540;2022-07-19T11:25:17;99552.00;;;26.18;44.89
54361;BME280;40258;53.936;27.540;2022-07-19T11:27:51;99545.69;;;26.76;45.92
54361;BME280;40258;53.936;27.540;2022-07-19T11:30:23;99546.22;;;26.64;45.18
54361;BME280;40258;53.936;27.540;2022-07-19T11:32:54;99549.00;;;26.64;46.20
54361;BME280;40258;53.936;27.540;2022-07-19T11:35:23;99539.66;;;26.50;46.13
54361;BME280;40258;53.936;27.540;2022-07-19T11:37:54;99546.03;;;26.20;44.74
54361;BME280;40258;53.936;27.540;2022-07-19T11:40:25;99535.13;;;26.33;44.97
54361;BME280;40258;53.936;27.540;2022-07-19T11:43:05;99542.38;;;26.27;46.33
54361;BME280;40258;53.936;27.540;2022-07-19T11:45:42;99546.72;;;26.59;44.90
54361;BME280;40258;53.936;27.540;2022-07-19T11:48:11;99540.75;;;25.95;46.14
54361;BME280;40258;53.936;27.540;2022-07-19T11:50:40;99540.13;;;25.42;49.14
54361;BME280;40258;53.936;27.540;2022-07-19T11:53:09;99538.44;;;25.52;48.89
54361;BME280;40258;53.936;27.540;2022-07-19T11:55:38;99541.06;;;25.66;48.38
54361;BME280;40258;53.936;27.540;2022-07-19T11:58:08;99535.69;;;25.86;48.37
54361;BME280;40258;53.936;27.540;2022-07-19T12:00:38;99540.94;;;25.80;46.77
54361;BME280;40258;53.936;27.540;2022-07-19T12:03:14;99545.69;;;26.14;46.54
54361;BME280;40258;53.936;27.540;2022-07-19T12:05:55;99532.00;;;26.31;46.13
54361;BME280;40258;53.936;27.540;2022-07-19T12:08:41;99534.44;;;26.83;45.39
54361;BME280;40258;53.936;27.540;2022-07-19T12:11:19;99538.28;;;26.89;44.71
54361;BME280;40258;53.936;27.540;2022-07-19T12:13:49;99540.28;;;27.16;43.85
54361;BME280;40258;53.936;27.540;2022-07-19T12:16:20;99540.28;;;27.16;43.98
54361;BME280;40258;53.936;27.540;2022-07-19T12:18:52;99532.38;;;26.87;45.77
54361;BME280;40258;53.936;27.540;2022-07-19T12:21:25;99529.19;;;26.00;46.93
54361;BME280;40258;53.936;27.540;2022-07-19T12:24:19;99530.75;;;25.25;49.38
54361;BME280;40258;53.936;27.540;2022-07-19T12:27:03;99531.81;;;24.89;50.63
54361;BME280;40258;53.936;27.540;2022-07-19T12:29:35;99528.31;;;25.34;50.59
54361;BME280;40258;53.936;27.540;2022-07-19T12:32:08;99518.41;;;25.68;48.09
54361;BME280;40258;53.936;27.540;2022-07-19T12:34:46;99510.19;;;25.95;50.23
54361;BME280;40258;53.936;27.540;2022-07-19T12:37:21;99508.91;;;26.34;46.91
54361;BME280;40258;53.936;27.540;2022-07-19T12:39:59;99511.31;;;26.32;45.40
54361;BME280;40258;53.936;27.540;2022-07-19T12:42:41;99506.47;;;26.36;46.83
54361;BME280;40258;53.936;27.540;2022-07-19T12:45:12;99506.47;;;26.36;46.11
54361;BME280;40258;53.936;27.540;2022-07-19T12:47:43;99503.97;;;26.45;44.79
54361;BME280;40258;53.936;27.540;2022-07-19T12:50:21;99497.69;;;26.10;45.20
54361;BME280;40258;53.936;27.540;2022-07-19T12:52:53;99499.50;;;25.90;45.04
54361;BME280;40258;53.936;27.540;2022-07-19T12:55:24;99502.38;;;25.82;46.34
54361;BME280;40258;53.936;27.540;2022-07-19T12:57:54;99501.81;;;25.64;45.52
54361;BME280;40258;53.936;27.540;2022-07-19T13:00:25;99498.78;;;25.51;46.19
54361;BME280;40258;53.936;27.540;2022-07-19T13:02:56;99501.22;;;25.80;45.97
54361;BME280;40258;53.936;27.540;2022-07-19T13:05:26;99508.41;;;25.77;46.07
54361;BME280;40258;53.936;27.540;2022-07-19T13:07:55;99512.38;;;26.11;44.73